Het weer levert geen direct gevaar op.    Er zijn geen waarschuwingen afgegeven.


Onweer radar Meer informatie blitzortung!


Regen radar Meer informatie rain snow radar


Bezoek onze andere website:

Template documentation
and downloads

And another site

Forum Leuven-template

EUWEATHER.EU

Verwachtingen Meteociel


U vindt ons ook hier:

Het Weer Aktueel

UK Metoffice

European Weather Network

WeatherCloud

Weather Underground

Benelux Weer Netwerk

AWEKAS

WeatherlinkIP

HAMweather, WeatherForYou, PWS Weather

Wetterpage 24

Wetter.com



METAR rapporten vliegvelden

   
EBAW - Antwerp
Gewijzigd: 22-08-2019 05:20
Helder  
Helder  
   Wind: ZO 1.9 km/h
Wind: ZO 1.9 km/h
Temperatuur: 10°C
Dauwpunt: 9°C
Vochtigheid: 94%
Barometer: 1025 hPa
Bewolking: Helder
Zicht: 7 km
Bewolking: Helder
EBAW 220320Z AUTO 14001KT 7000 // NCD 10/09 Q1025
EBLG - Li├Ęge
Gewijzigd: 22-08-2019 05:20
Helder  
Helder  
   Wind: ZZO 14.8 km/h
Wind: ZZO 14.8 km/h
Temperatuur: 14°C
Dauwpunt: 10°C
Vochtigheid: 77%
Barometer: 1025 hPa
Zicht: meer dan 10 km
Bewolking: Helder
EBLG 220320Z 15008KT CAVOK 14/10 Q1025 NOSIG
EBCV - Mons/Bergen
Gewijzigd: 22-08-2019 05:25
Helder  
Helder  
   Wind: varieert 1.9 km/h
Wind: varieert 1.9 km/h
Temperatuur: 9°C
Dauwpunt: 8°C
Vochtigheid: 94%
Barometer: 1025 hPa
Bewolking: Helder
Zicht: 5 km
Bewolking: Helder
EBCV 220325Z AUTO VRB01KT 5000 NCD 09/08 Q1025 WHT
EHBK - Maastricht
Gewijzigd: 22-08-2019 05:25
Helder  
Helder  
   Wind: Zuiden 5.6 km/h
Wind: Zuiden 5.6 km/h
Temperatuur: 12°C
Dauwpunt: 8°C
Vochtigheid: 77%
Barometer: 1025 hPa
Bewolking: Helder
Zicht: meer dan 10 km
Bewolking: Helder
EHBK 220325Z AUTO 18003KT 9999 NCD 12/08 Q1025
ELLX - Luxemburg
Gewijzigd: 22-08-2019 05:20
Helder  
Helder  
   Wind: NO 14.8 km/h
Wind: NO 14.8 km/h
Temperatuur: 14°C
Dauwpunt: 8°C
Vochtigheid: 67%
Barometer: 1026 hPa
Zicht: meer dan 10 km
Bewolking: Helder
ELLX 220320Z 04008KT CAVOK 14/08 Q1026 NOSIG
EBOS - Oostende
Gewijzigd: 22-08-2019 05:20
Shallow Fog, Gedeeltelijk bewolkt  
Shallow Fog, Gedeeltelijk bewolkt  
   Wind: Zuiden 3.7 km/h
Wind: Zuiden 3.7 km/h
Temperatuur: 10°C
Dauwpunt: 9°C
Vochtigheid: 94%
Barometer: 1025 hPa
Bewolking: Gedeeltelijk bewolkt
Zicht: 4 km
Bewolking: Gedeeltelijk bewolkt
EBOS 220320Z 19002KT 4200 MIFG NSC 10/09 Q1025 TEMPO 2000 BCFG

Script ontwikkeld door  Saratoga-weather.org Aangepast voor de template door  Weerstation Leuven

Apparatuur in gebruik:

Weerstation
Davis VP2

Weerprogramma
Meteobridge

Weercomputer
Asus WL -330N3G

Webleverancier
Onecom

Davis VP2

Meteobridge

Asus WL -330N3G

Onecom